CheckWX is a tool to help pilots better visualize weather data.  It is not intended as a substitute for an official pre-flight weather briefing.

13:45:09 UTC

KNEW TAF
Lakefront Airport
New Orleans, Louisiana, USA
KNEW 041720Z 0418/0518 08006KT P6SM SCT090 BKN200 FM042300 12005KT P6SM SCT080 BKN090 FM050600 32005KT P6SM SCT045 OVC070 FM051000 03007KT P6SM VCSH SCT020 BKN025 FM051100 04007KT P6SM SCT015 BKN025 FM051400 06007KT P6SM SCT015

Apr-4@
18:00 UTC

Apr-4 @ 18:00 UTC

Apr-4@
23:00 UTC

Apr-4 @ 23:00 UTC

TAF KNEW 041720Z 0418/0518 08006KT P6SM SCT090 BKN200

Expired

Wind
  • 080° at 6 KTS
Cloud Levels
  • Scattered at 9,000' AGL
  • Broken at 20,000' AGL

Apr-4@
23:00 UTC

Apr-4 @ 23:00 UTC

Apr-5@
06:00 UTC

Apr-5 @ 06:00 UTC

FM042300 12005KT P6SM SCT080 BKN090

Expired

Wind
  • 120° at 5 KTS
Cloud Levels
  • Scattered at 8,000' AGL
  • Broken at 9,000' AGL

Apr-5@
06:00 UTC

Apr-5 @ 06:00 UTC

Apr-5@
10:00 UTC

Apr-5 @ 10:00 UTC

FM050600 32005KT P6SM SCT045 OVC070

Expired

Wind
  • 320° at 5 KTS
Cloud Levels
  • Scattered at 4,500' AGL
  • Overcast at 7,000' AGL

Apr-5@
10:00 UTC

Apr-5 @ 10:00 UTC

Apr-5@
11:00 UTC

Apr-5 @ 11:00 UTC

FM051000 03007KT P6SM VCSH SCT020 BKN025

Expired

Wind
  • 030° at 7 KTS
Conditions
Area Showers
Cloud Levels
  • Scattered at 2,000' AGL
  • Broken at 2,500' AGL

Apr-5@
11:00 UTC

Apr-5 @ 11:00 UTC

Apr-5@
14:00 UTC

Apr-5 @ 14:00 UTC

FM051100 04007KT P6SM SCT015 BKN025

From

From Standard forecast or significant change

Wind
  • 040° at 7 KTS
Cloud Levels
  • Scattered at 1,500' AGL
  • Broken at 2,500' AGL

Apr-5@
14:00 UTC

Apr-5 @ 14:00 UTC

Apr-5@
18:00 UTC

Apr-5 @ 18:00 UTC

FM051400 06007KT P6SM SCT015

From

From Standard forecast or significant change

Wind
  • 060° at 7 KTS
Cloud Levels
  • Scattered at 1,500' AGL